Latest Weather Observations for Ferny Creek

IDV60901

Issued at 4:11 pm EST Wednesday 26 April 2017 (issued every 10 minutes, with the page automatically refreshed every 10 minutes)

About weather observations | Map of Melbourne area stations | Latest observations for Melbourne area | Other Formats
Station Details ID: 086266 Name: FERNY CREEK Lat: -37.87 Lon: 145.35 Height: 512.9 m
Data from the previous 72 hours. | See also: Recent months at Ferny Creek
Date/Time
EST
Temp
°C
App
Temp
°C
Dew
Point
°C
Rel
Hum
%
Delta-T
°C
Wind Press
QNH
hPa
Press
MSL
hPa
Rain since
9am
mm
Dir  Spd
km/h
Gust
km/h
Spd
kts
Gust
kts
26/04:00pm 7.8 4.8 2.3 68 2.4 S 7 15 4 8 1014.3 1013.8 1.8
26/03:30pm 6.6 4.0 3.0 78 1.6 SE 6 15 3 8 1014.1 1013.6 1.8
26/03:00pm 8.2 4.9 2.2 66 2.6 SSW 9 37 5 20 1013.6 1013.0 1.6
26/02:30pm 8.6 4.8 1.7 62 2.9 SW 11 32 6 17 1013.1 1012.5 1.4
26/02:00pm 8.4 5.2 3.3 70 2.3 SW 9 19 5 10 1012.7 1012.1 1.4
26/01:30pm 7.1 4.5 4.1 81 1.3 ESE 7 22 4 12 1012.4 1011.9 1.4
26/01:00pm 7.1 4.8 4.8 85 1.0 ENE 6 15 3 8 1012.2 1011.7 1.4
26/12:30pm 8.4 5.2 3.3 70 2.3 SSW 9 22 5 12 1011.7 1011.1 0.6
26/12:00pm 8.4 4.9 3.3 70 2.3 SSW 11 28 6 15 1011.5 1010.9 0.6
26/11:30am 8.3 5.9 5.1 80 1.5 S 7 24 4 13 1011.2 1010.6 0.6
26/11:00am 9.2 6.9 5.8 79 1.6 S 7 17 4 9 1010.4 1009.9 0.6
26/10:30am 7.8 5.8 6.9 94 0.4 SW 7 19 4 10 1010.1 1009.5 0.6
26/10:00am 7.2 4.7 6.6 96 0.3 SSW 9 24 5 13 1010.0 1009.4 0.6
26/09:30am 7.1 5.2 6.5 96 0.3 S 6 15 3 8 1009.5 1008.9 0.6
26/09:00am 6.9 4.9 6.2 95 0.3 SE 6 17 3 9 1009.0 1008.4 35.4
26/08:30am 7.0 5.0 6.3 95 0.3 SW 6 17 3 9 1008.6 1007.9 35.0
26/08:00am 6.7 4.6 6.0 95 0.3 SW 6 20 3 11 1008.0 1007.4 34.4
26/07:30am 6.1 3.7 5.4 95 0.3 W 7 15 4 8 1007.6 1007.0 34.0
26/07:00am 6.3 4.0 5.7 96 0.3 WSW 7 15 4 8 1007.4 1006.8 33.8
26/06:30am 6.8 4.2 6.2 96 0.3 WSW 9 20 5 11 1006.8 1006.1 32.0
26/06:00am 7.2 4.7 6.6 96 0.3 WSW 9 17 5 9 1006.1 1005.5 29.6
26/05:30am 7.3 4.8 6.7 96 0.3 WSW 9 26 5 14 1005.5 1004.9 27.6
26/05:00am 7.3 4.8 6.6 95 0.3 WSW 9 19 5 10 1004.7 1004.0 25.2
26/04:30am 7.7 5.6 6.8 94 0.4 WSW 7 24 4 13 1003.9 1003.3 22.6
26/04:00am 8.2 6.5 6.0 86 1.0 NNW 4 9 2 5 1003.2 1002.5 17.4
26/03:30am 9.3 7.7 7.9 91 0.7 NW 6 19 3 10 1003.7 1003.1 16.8
26/03:00am 9.4 7.6 8.0 91 0.7 NW 7 17 4 9 1004.1 1003.5 16.8
26/02:30am 9.5 7.9 8.1 91 0.7 NW 6 13 3 7 1004.0 1003.4 16.8
26/02:00am 9.5 8.4 8.4 93 0.6 W 4 9 2 5 1004.2 1003.6 16.8
26/01:30am 9.6 8.1 8.5 93 0.6 NW 6 9 3 5 1004.5 1003.8 16.8
26/01:00am 9.4 7.8 8.8 96 0.3 NW 7 17 4 9 1004.7 1004.0 16.8
26/12:30am 8.8 8.0 8.2 96 0.3 WNW 2 6 1 3 1005.1 1004.4 16.8
26/12:00am 9.1 8.0 8.5 96 0.3 NW 4 9 2 5 1005.5 1004.9 16.8
 
Date/Time
EST
Temp
°C
App
Temp
°C
Dew
Point
°C
Rel
Hum
%
Delta-T
°C
Wind Press
QNH
hPa
Press
MSL
hPa
Rain since
9am
mm
Dir  Spd
km/h
Gust
km/h
Spd
kts
Gust
kts
25/11:30pm 9.7 8.8 9.1 96 0.3 W 4 7 2 4 1005.8 1005.2 16.6
25/11:00pm 10.0 8.8 9.4 96 0.3 WNW 6 15 3 8 1005.7 1005.1 16.6
25/10:30pm 10.3 8.9 9.5 95 0.4 WNW 7 15 4 8 1006.0 1005.4 16.4
25/10:00pm 11.4 9.7 9.8 90 0.8 WNW 9 28 5 15 1006.2 1005.6 15.6
25/09:30pm 11.9 11.3 10.3 90 0.8 N 4 17 2 9 1005.6 1005.0 14.4
25/09:00pm 11.3 10.6 10.2 93 0.6 N 4 6 2 3 1006.2 1005.6 14.4
25/08:30pm 10.3 9.8 9.4 94 0.5 NNE 2 4 1 2 1006.5 1005.8 14.4
25/08:00pm 10.7 10.3 9.9 95 0.4 NNW 2 4 1 2 1006.6 1005.9 14.4
25/07:30pm 10.8 10.5 10.0 95 0.4 NW 2 6 1 3 1006.9 1006.2 14.4
25/07:00pm 10.9 10.7 10.3 96 0.3 NW 2 2 1 1 1007.1 1006.5 14.4
25/06:30pm 11.2 10.7 10.6 96 0.3 NW 4 6 2 3 1007.1 1006.5 14.4
25/06:00pm 11.0 10.7 10.2 95 0.4 NNW 2 9 1 5 1007.0 1006.4 14.4
25/05:30pm 11.7 12.0 10.9 95 0.4 CALM 0 0 0 0 1007.1 1006.5 14.4
25/05:00pm 12.2 12.6 11.4 95 0.4 CALM 0 0 0 0 1007.2 1006.6 14.4
25/04:30pm 12.3 12.0 11.5 95 0.4 WSW 4 7 2 4 1007.4 1006.8 14.4
25/04:00pm 12.4 12.5 11.6 95 0.4 W 2 7 1 4 1007.4 1006.8 14.4
25/03:30pm 12.3 12.1 11.8 97 0.3 W 4 9 2 5 1007.4 1006.8 14.4
25/03:00pm 12.6 12.2 12.3 98 0.2 WSW 6 13 3 7 1007.4 1006.8 14.2
25/02:30pm 11.9 11.3 11.6 98 0.2 WSW 6 17 3 9 1007.3 1006.7 14.2
25/02:00pm 11.5 10.5 11.0 97 0.3 W 7 20 4 11 1007.5 1006.9 14.2
25/01:30pm 12.3 11.8 12.0 98 0.2 W 6 15 3 8 1007.5 1006.9 12.6
25/01:00pm 12.7 12.7 12.4 98 0.2 WSW 4 13 2 7 1007.6 1007.0 8.6
25/12:30pm 12.2 11.6 11.7 97 0.3 W 6 15 3 8 1007.9 1007.3 7.2
25/12:00pm 12.5 12.0 12.0 97 0.3 WSW 6 19 3 10 1008.1 1007.5 3.2
25/11:30am 13.3 13.9 13.0 98 0.2 W 2 9 1 5 1008.2 1007.6 0.8
25/11:00am 13.2 13.4 12.9 98 0.2 WNW 4 11 2 6 1008.6 1007.9 0.2
25/10:30am 13.1 13.2 12.6 97 0.3 W 4 9 2 5 1008.4 1007.8 0.0
25/10:00am 13.2 13.3 12.7 97 0.3 W 4 15 2 8 1008.4 1007.8 0.0
25/09:30am 13.2 13.3 12.7 97 0.3 W 4 13 2 7 1008.2 1007.6 0.0
25/09:00am 13.3 13.4 12.7 96 0.3 W 4 13 2 7 1008.3 1007.7 32.2
25/08:30am 13.8 13.5 13.3 97 0.3 NW 7 19 4 10 1008.0 1007.4 30.6
25/08:00am 13.8 13.7 13.3 97 0.3 NNW 6 13 3 7 1007.9 1007.3 30.6
25/07:30am 13.9 13.6 13.4 97 0.3 NNW 7 15 4 8 1008.0 1007.4 30.4
25/07:00am 13.9 13.6 13.4 97 0.3 NNW 7 20 4 11 1008.0 1007.4 30.2
25/06:30am 13.9 13.8 13.4 97 0.3 NNW 6 20 3 11 1007.8 1007.2 29.6
25/06:00am 13.9 13.8 13.4 97 0.3 NNW 6 15 3 8 1008.0 1007.4 28.6
25/05:30am 14.0 14.0 13.5 97 0.3 NNW 6 15 3 8 1008.1 1007.5 27.2
25/05:00am 14.1 14.1 13.6 97 0.3 N 6 11 3 6 1008.2 1007.6 26.2
25/04:30am 14.2 14.0 13.7 97 0.3 N 7 15 4 8 1008.2 1007.6 25.6
25/04:00am 14.3 14.2 13.8 97 0.3 NNW 7 20 4 11 1008.6 1007.9 25.2
25/03:30am 14.3 14.4 13.8 97 0.3 NNW 6 17 3 9 1008.8 1008.2 24.4
25/03:00am 14.4 14.3 13.9 97 0.3 NNW 7 17 4 9 1009.1 1008.5 23.4
25/02:30am 14.4 14.5 13.9 97 0.3 NNW 6 13 3 7 1009.4 1008.8 23.0
25/02:00am 14.3 14.7 13.8 97 0.3 N 4 11 2 6 1009.9 1009.3 22.0
25/01:30am 14.3 14.7 13.8 97 0.3 N 4 7 2 4 1010.2 1009.6 18.8
25/01:00am 14.4 14.5 13.8 96 0.3 NNW 6 17 3 9 1010.9 1010.3 14.6
25/12:30am 14.3 14.2 13.3 94 0.6 NNW 6 11 3 6 1011.4 1010.8 11.0
25/12:00am 15.2 15.0 12.9 86 1.3 N 6 11 3 6 1011.5 1010.9 3.8
 
Date/Time
EST
Temp
°C
App
Temp
°C
Dew
Point
°C
Rel
Hum
%
Delta-T
°C
Wind Press
QNH
hPa
Press
MSL
hPa
Rain since
9am
mm
Dir  Spd
km/h
Gust
km/h
Spd
kts
Gust
kts
24/11:30pm 14.7 14.9 13.1 90 0.9 N 4 9 2 5 1011.7 1011.1 2.8
24/11:00pm 15.6 15.2 12.4 81 1.8 NNW 6 15 3 8 1012.7 1012.1 1.0
24/10:30pm 17.0 15.8 11.5 70 3.1 NNE 9 20 5 11 1012.7 1012.1 0.4
24/10:00pm 17.3 15.3 11.6 69 3.2 NE 13 24 7 13 1013.1 1012.5 0.4
24/09:30pm 17.1 15.5 11.6 70 3.1 NE 11 19 6 10 1013.5 1012.9 0.4
24/09:00pm 17.3 16.2 11.8 70 3.1 NE 9 19 5 10 1013.8 1013.3 0.4
24/08:30pm 16.8 16.1 11.9 73 2.7 NNE 7 15 4 8 1014.1 1013.6 0.4
24/08:00pm 17.0 16.5 12.1 73 2.8 NNE 6 11 3 6 1014.8 1014.2 0.4
24/07:30pm 16.9 16.1 11.8 72 2.9 NNE 7 13 4 7 1015.1 1014.5 0.4
24/07:00pm 16.8 16.3 12.1 74 2.6 NNE 6 13 3 7 1015.1 1014.5 0.4
24/06:30pm 16.5 16.1 12.5 77 2.3 NE 6 11 3 6 1015.0 1014.4 0.4
24/06:00pm 16.8 16.5 12.7 77 2.3 N 6 11 3 6 1015.3 1014.7 0.4
24/05:30pm 17.3 17.0 12.6 74 2.7 N 6 13 3 7 1015.5 1015.0 0.4
24/05:00pm 17.5 17.6 12.8 74 2.7 N 4 11 2 6 1015.7 1015.2 0.4
24/04:30pm 17.9 17.7 13.0 73 2.8 NNE 6 7 3 4 1015.9 1015.4 0.4
24/04:00pm 18.2 18.4 12.9 71 3.0 N 4 9 2 5 1016.2 1015.7 0.4
24/03:30pm 19.0 18.9 13.2 69 3.4 NNE 6 9 3 5 1016.4 1015.9 0.4
24/03:00pm 18.0 18.2 13.1 73 2.8 NNE 4 7 2 4 1016.7 1016.2 0.4
24/02:30pm 18.0 17.7 12.7 71 3.0 N 6 9 3 5 1017.0 1016.4 0.4
24/02:00pm 18.5 19.3 13.6 73 2.9 N 2 6 1 3 1017.3 1016.8 0.4
24/01:30pm 17.9 17.7 13.0 73 2.8 NNW 6 13 3 7 1017.7 1017.2 0.4
24/01:00pm 18.2 18.2 13.7 75 2.6 NNW 6 11 3 6 1018.0 1017.5 0.4
24/12:30pm 18.1 18.0 13.2 73 2.8 NNW 6 13 3 7 1018.6 1018.1 0.4
24/12:00pm 17.9 17.6 12.6 71 3.0 N 6 11 3 6 1019.2 1018.7 0.4
24/11:30am 16.8 17.0 13.1 79 2.1 NNW 4 9 2 5 1019.8 1019.3 0.4
24/11:00am 16.4 17.1 13.3 82 1.8 N 2 7 1 4 1020.2 1019.7 0.4
24/10:30am 15.5 16.5 14.2 92 0.8 NW 2 7 1 4 1020.5 1020.1 0.4
24/10:00am 13.6 14.0 12.5 93 0.6 N 2 6 1 3 1020.8 1020.4 0.4
24/09:30am 13.7 13.6 12.1 90 0.9 W 4 9 2 5 1021.6 1021.1 0.0
24/09:00am 14.4 14.3 12.1 86 1.3 NW 4 9 2 5 1021.4 1020.9 1.6
24/08:30am 13.5 13.9 12.6 94 0.5 NW 2 6 1 3 1021.4 1020.9 1.6
24/08:00am 13.2 13.6 12.6 96 0.3 NNW 2 4 1 2 1021.3 1020.8 1.6
24/07:30am 12.7 13.0 12.2 97 0.3 N 2 4 1 2 1021.3 1020.8 1.6
24/07:00am 12.6 12.9 12.1 97 0.3 NW 2 6 1 3 1021.3 1020.8 1.0
24/06:30am 12.6 13.3 12.3 98 0.2 CALM 0 4 0 2 1021.4 1020.9 0.0
24/06:00am 12.3 12.9 11.8 97 0.3 CALM 0 0 0 0 1021.4 1020.9 0.0
24/05:30am 12.1 12.6 11.6 97 0.3 CALM 0 0 0 0 1021.5 1021.0 0.0
24/05:00am 12.3 12.9 11.8 97 0.3 CALM 0 0 0 0 1021.5 1021.0 0.0
24/04:30am 12.4 13.0 11.9 97 0.3 CALM 0 0 0 0 1021.5 1021.0 0.0
24/04:00am 12.2 12.7 11.7 97 0.3 CALM 0 0 0 0 1021.5 1021.0 0.0
24/03:30am 12.1 12.6 11.6 97 0.3 CALM 0 2 0 1 1021.4 1020.9 0.0
24/03:00am 12.2 12.4 11.7 97 0.3 WNW 2 4 1 2 1021.8 1021.3 0.0
24/02:30am 12.3 12.9 11.8 97 0.3 CALM 0 0 0 0 1021.9 1021.4 0.0
24/02:00am 12.5 12.7 12.0 97 0.3 WNW 2 4 1 2 1022.3 1021.9 0.0
24/01:30am 12.0 12.1 11.4 96 0.3 W 2 2 1 1 1022.4 1022.0 0.0
24/01:00am 12.1 12.6 11.5 96 0.3 CALM 0 0 0 0 1022.5 1022.1 0.0
24/12:30am 11.9 12.3 11.1 95 0.4 CALM 0 0 0 0 1022.7 1022.3 0.0
24/12:00am 12.0 12.4 11.2 95 0.4 CALM 0 2 0 1 1023.1 1022.6 0.0
 
Date/Time
EST
Temp
°C
App
Temp
°C
Dew
Point
°C
Rel
Hum
%
Delta-T
°C
Wind Press
QNH
hPa
Press
MSL
hPa
Rain since
9am
mm
Dir  Spd
km/h
Gust
km/h
Spd
kts
Gust
kts
23/11:30pm 12.8 13.4 12.0 95 0.4 CALM 0 0 0 0 1023.3 1022.8 0.0
23/11:00pm 12.5 13.1 11.9 96 0.3 CALM 0 0 0 0 1023.6 1023.1 0.0
23/10:30pm 12.8 13.5 12.2 96 0.3 CALM 0 0 0 0 1024.0 1023.6 0.0
23/10:00pm 13.3 14.1 12.7 96 0.3 CALM 0 0 0 0 1024.2 1023.8 0.0
23/09:30pm 13.6 14.5 13.0 96 0.3 CALM 0 0 0 0 1024.3 1023.9 0.0
23/09:00pm 13.3 14.1 12.5 95 0.4 CALM 0 0 0 0 1024.3 1023.9 0.0
23/08:30pm 13.3 14.1 12.4 94 0.5 CALM 0 0 0 0 1024.2 1023.8 0.0
23/08:00pm 13.5 13.6 12.6 94 0.5 SSW 4 6 2 3 1024.2 1023.8 0.0
23/07:30pm 13.3 13.1 11.9 91 0.8 SW 4 7 2 4 1024.1 1023.7 0.0
23/07:00pm 13.6 13.8 11.7 88 1.0 SSW 2 6 1 3 1024.0 1023.6 0.0
23/06:30pm 13.8 13.8 11.1 84 1.5 SW 2 2 1 1 1023.7 1023.2 0.0
23/06:00pm 14.4 14.5 11.4 82 1.6 SSW 2 4 1 2 1023.6 1023.1 0.0
23/05:30pm 14.6 14.7 11.6 82 1.7 SSW 2 4 1 2 1023.5 1023.0 0.0
23/05:00pm 15.3 15.4 11.5 78 2.1 SE 2 4 1 2 1023.3 1022.8 0.0
23/04:30pm 16.2 16.4 12.0 76 2.4 SSW 2 4 1 2 1023.3 1022.8 0.0

Latest Capital City Observations: Canberra | Sydney | Melbourne | Brisbane | Adelaide | Perth | Hobart | Darwin

Other Formats:

Comma delimited format used in spreadsheet applications
http://www.bom.gov.au/fwo/IDV60901/IDV60901.94872.axf

JavaScript Object Notation format (JSON) in row-major order
http://www.bom.gov.au/fwo/IDV60901/IDV60901.94872.json